createdAt,value
2023-05-02T00:01:29.302Z,58.19
2023-05-02T00:06:32.450Z,58.27
2023-05-02T00:11:35.501Z,58.51
2023-05-02T00:16:41.306Z,58.46
2023-05-02T00:21:50.341Z,58.52
2023-05-02T00:26:53.276Z,58.27
2023-05-02T00:31:56.961Z,58.21
2023-05-02T00:37:00.585Z,58.30
2023-05-02T00:42:03.590Z,58.07
2023-05-02T00:47:06.739Z,57.59
2023-05-02T00:52:09.863Z,57.64
2023-05-02T00:57:12.835Z,58.00
2023-05-02T01:02:36.896Z,58.25
2023-05-02T01:07:45.651Z,57.91
2023-05-02T01:13:00.678Z,58.03
2023-05-02T01:18:05.804Z,58.25
2023-05-02T01:23:28.888Z,58.21
2023-05-02T01:28:44.244Z,58.86
2023-05-02T01:33:48.810Z,59.19
2023-05-02T01:38:53.080Z,59.30
2023-05-02T01:44:02.089Z,59.64
2023-05-02T01:49:09.310Z,59.41
2023-05-02T01:54:14.314Z,59.45
2023-05-02T01:59:24.078Z,59.49
2023-05-02T02:04:28.859Z,59.60
2023-05-02T02:09:31.987Z,59.17
2023-05-02T02:14:38.677Z,59.52
2023-05-02T02:19:43.049Z,59.46
2023-05-02T02:24:47.659Z,58.96
2023-05-02T02:29:50.646Z,58.81
2023-05-02T02:34:53.907Z,58.71
2023-05-02T02:40:50.545Z,58.84
2023-05-02T02:46:21.270Z,58.75
2023-05-02T02:51:33.038Z,58.95
2023-05-02T02:56:47.802Z,58.97
2023-05-02T03:02:07.315Z,59.27
2023-05-02T03:07:10.828Z,59.51
2023-05-02T03:12:14.527Z,59.34
2023-05-02T03:17:17.360Z,59.47
2023-05-02T03:22:20.300Z,59.30
2023-05-02T03:27:23.241Z,59.28
2023-05-02T03:32:28.463Z,59.70
2023-05-02T03:37:31.539Z,59.59
2023-05-02T03:42:41.533Z,59.95
2023-05-02T03:47:44.615Z,60.00
2023-05-02T03:52:47.837Z,60.09
2023-05-02T03:57:53.728Z,60.24
2023-05-02T04:02:56.710Z,60.20
2023-05-02T04:07:59.770Z,60.40
2023-05-02T04:13:04.292Z,60.41
2023-05-02T04:18:07.337Z,60.52
2023-05-02T04:23:10.343Z,60.38
2023-05-02T04:28:13.305Z,60.40
2023-05-02T04:33:16.574Z,60.20
2023-05-02T04:38:19.605Z,59.58
2023-05-02T04:43:24.484Z,59.09
2023-05-02T04:48:27.862Z,58.88
2023-05-02T04:53:33.857Z,58.45
2023-05-02T04:58:36.951Z,57.99
2023-05-02T05:03:40.056Z,56.87
2023-05-02T05:08:45.539Z,56.76
2023-05-02T05:13:48.513Z,56.33
2023-05-02T05:18:54.703Z,55.41
2023-05-02T05:23:57.861Z,53.95
2023-05-02T05:29:00.827Z,53.44
2023-05-02T05:34:04.628Z,53.71
2023-05-02T05:39:10.988Z,53.45
2023-05-02T05:44:14.006Z,52.59
2023-05-02T05:49:19.867Z,52.05
2023-05-02T05:54:23.055Z,51.73
2023-05-02T05:59:26.136Z,51.63
2023-05-02T06:04:29.114Z,51.84
2023-05-02T06:09:32.493Z,51.97
2023-05-02T06:14:35.362Z,51.75
2023-05-02T06:19:38.349Z,52.05
2023-05-02T06:24:41.307Z,51.15
2023-05-02T06:29:44.365Z,51.30
2023-05-02T06:34:47.320Z,50.73
2023-05-02T06:39:50.305Z,50.92
2023-05-02T06:44:53.266Z,50.39
2023-05-02T06:49:56.340Z,49.36
2023-05-02T06:54:59.277Z,48.80
2023-05-02T07:00:02.688Z,48.64
2023-05-02T07:05:07.130Z,47.95
2023-05-02T07:10:11.453Z,47.01
2023-05-02T07:15:14.473Z,47.49
2023-05-02T07:20:20.596Z,46.65
2023-05-02T07:25:23.610Z,45.89
2023-05-02T07:30:29.441Z,45.62
2023-05-02T07:35:32.375Z,45.39
2023-05-02T07:40:35.618Z,44.31
2023-05-02T07:45:38.580Z,44.05
2023-05-02T07:50:41.561Z,43.65
2023-05-02T07:55:44.528Z,42.86
2023-05-02T08:00:47.518Z,43.69
2023-05-02T08:05:50.444Z,43.32
2023-05-02T08:10:53.361Z,43.41
2023-05-02T08:16:00.005Z,42.83
2023-05-02T08:21:03.085Z,43.19
2023-05-02T08:26:06.697Z,43.31
2023-05-02T08:31:12.538Z,42.76
2023-05-02T08:36:18.504Z,43.16
2023-05-02T08:41:22.930Z,42.86
2023-05-02T08:46:27.169Z,43.41
2023-05-02T08:51:32.815Z,42.83
2023-05-02T08:56:36.237Z,44.33
2023-05-02T09:01:41.801Z,42.70
2023-05-02T09:06:45.275Z,43.70
2023-05-02T09:11:49.988Z,43.82
2023-05-02T09:16:59.382Z,43.08
2023-05-02T09:22:02.619Z,44.09
2023-05-02T09:27:06.028Z,43.76
2023-05-02T09:32:09.088Z,43.58
2023-05-02T09:37:15.802Z,43.69
2023-05-02T09:42:31.604Z,43.04
2023-05-02T09:47:34.666Z,43.83
2023-05-02T09:52:37.909Z,43.55
2023-05-02T09:57:41.821Z,44.17
2023-05-02T10:02:48.119Z,44.12
2023-05-02T10:07:51.171Z,43.71
2023-05-02T10:12:55.397Z,43.05
2023-05-02T10:18:01.354Z,43.51
2023-05-02T10:23:05.002Z,43.78
2023-05-02T10:28:08.306Z,43.47
2023-05-02T10:33:14.186Z,44.45
2023-05-02T10:38:22.294Z,43.71
2023-05-02T10:43:31.248Z,42.96
2023-05-02T10:48:34.393Z,43.19
2023-05-02T10:53:44.923Z,42.56
2023-05-02T10:58:54.028Z,43.27
2023-05-02T11:04:02.437Z,44.11
2023-05-02T11:09:31.266Z,44.70
2023-05-02T11:14:43.390Z,44.13
2023-05-02T11:19:46.396Z,43.97
2023-05-02T11:24:51.313Z,44.00
2023-05-02T11:30:09.988Z,43.05
2023-05-02T11:35:27.293Z,42.74
2023-05-02T11:40:31.838Z,43.79
2023-05-02T11:45:39.346Z,43.65
2023-05-02T11:50:49.679Z,44.35
2023-05-02T11:56:03.091Z,43.92
2023-05-02T12:01:16.524Z,44.19
2023-05-02T12:06:20.189Z,43.42
2023-05-02T12:11:23.926Z,43.38
2023-05-02T12:16:27.007Z,43.60
2023-05-02T12:21:30.189Z,43.77
2023-05-02T12:26:35.816Z,44.65
2023-05-02T12:31:39.226Z,44.57
2023-05-02T12:36:45.565Z,43.91
2023-05-02T12:41:48.562Z,43.95
2023-05-02T12:47:01.548Z,43.93
2023-05-02T12:52:04.680Z,43.99
2023-05-02T12:57:08.760Z,44.11
2023-05-02T13:02:11.795Z,43.70
2023-05-02T13:07:14.690Z,43.56
2023-05-02T13:12:18.234Z,43.65
2023-05-02T13:17:21.875Z,44.84
2023-05-02T13:22:25.909Z,45.26
2023-05-02T13:27:29.038Z,46.31
2023-05-02T13:32:31.939Z,46.92
2023-05-02T13:37:35.014Z,46.75
2023-05-02T13:42:37.840Z,47.04
2023-05-02T13:47:41.634Z,46.99
2023-05-02T13:52:46.990Z,47.46
2023-05-02T13:57:51.671Z,47.89
2023-05-02T14:02:54.874Z,47.80
2023-05-02T14:07:57.895Z,47.95
2023-05-02T14:13:00.853Z,48.08
2023-05-02T14:18:03.992Z,47.63
2023-05-02T14:23:07.680Z,47.73
2023-05-02T14:28:12.411Z,48.08
2023-05-02T14:33:16.415Z,48.58
2023-05-02T14:38:19.364Z,48.14
2023-05-02T14:43:22.574Z,47.62
2023-05-02T14:48:25.618Z,47.75
2023-05-02T14:53:28.576Z,48.15
2023-05-02T14:58:31.533Z,48.13
2023-05-02T15:03:36.376Z,47.43
2023-05-02T15:08:43.713Z,46.88
2023-05-02T15:13:49.630Z,46.96
2023-05-02T15:18:55.638Z,47.46
2023-05-02T15:23:58.937Z,48.47
2023-05-02T15:29:01.981Z,48.80
2023-05-02T15:34:04.932Z,47.84
2023-05-02T15:39:07.885Z,48.71
2023-05-02T15:44:10.820Z,49.70
2023-05-02T15:49:13.915Z,49.94
2023-05-02T15:54:16.690Z,50.15
2023-05-02T15:59:19.552Z,50.36
2023-05-02T16:04:22.653Z,51.56
2023-05-02T16:09:28.399Z,52.31
2023-05-02T16:14:31.342Z,51.98
2023-05-02T16:19:34.306Z,51.46
2023-05-02T16:24:37.408Z,52.20
2023-05-02T16:29:40.983Z,52.95
2023-05-02T16:34:43.935Z,53.46
2023-05-02T16:39:47.138Z,53.59
2023-05-02T16:44:52.704Z,54.24
2023-05-02T16:50:00.585Z,54.76
2023-05-02T16:55:06.990Z,55.18
2023-05-02T17:00:12.460Z,55.14
2023-05-02T17:05:15.911Z,55.24
2023-05-02T17:10:19.215Z,54.85
2023-05-02T17:15:24.738Z,54.58
2023-05-02T17:20:27.785Z,54.60
2023-05-02T17:25:31.362Z,54.04
2023-05-02T17:30:34.411Z,54.09
2023-05-02T17:35:37.545Z,54.20
2023-05-02T17:40:40.506Z,54.53
2023-05-02T17:45:43.763Z,54.88
2023-05-02T17:50:46.864Z,55.46
2023-05-02T17:55:49.778Z,55.26
2023-05-02T18:00:52.703Z,55.54
2023-05-02T18:05:55.672Z,55.27
2023-05-02T18:10:59.484Z,55.16
2023-05-02T18:16:02.570Z,55.70
2023-05-02T18:21:11.924Z,55.78
2023-05-02T18:26:15.216Z,56.38
2023-05-02T18:31:18.170Z,56.76
2023-05-02T18:36:29.256Z,58.03
2023-05-02T18:41:32.787Z,58.27
2023-05-02T18:46:37.723Z,58.04
2023-05-02T18:51:40.598Z,58.16
2023-05-02T18:56:43.847Z,59.75
2023-05-02T19:01:48.565Z,59.58
2023-05-02T19:06:51.645Z,59.26
2023-05-02T19:11:55.165Z,59.23
2023-05-02T19:16:58.138Z,59.47
2023-05-02T19:22:01.443Z,59.89
2023-05-02T19:27:06.876Z,59.60
2023-05-02T19:32:10.049Z,59.83
2023-05-02T19:37:13.000Z,59.55
2023-05-02T19:42:15.920Z,59.38
2023-05-02T19:47:18.885Z,59.53
2023-05-02T19:52:21.832Z,59.68
2023-05-02T19:57:24.917Z,59.46
2023-05-02T20:02:28.038Z,59.57
2023-05-02T20:07:31.266Z,60.04
2023-05-02T20:12:34.264Z,60.38
2023-05-02T20:17:38.441Z,60.72
2023-05-02T20:22:42.482Z,60.89
2023-05-02T20:27:46.046Z,61.03
2023-05-02T20:32:49.184Z,61.14
2023-05-02T20:37:52.179Z,61.52
2023-05-02T20:42:55.128Z,61.96
2023-05-02T20:47:58.190Z,61.63
2023-05-02T20:53:01.199Z,61.42
2023-05-02T20:58:04.131Z,61.64
2023-05-02T21:03:07.150Z,62.69
2023-05-02T21:08:10.192Z,64.18
2023-05-02T21:13:13.661Z,65.89
2023-05-02T21:18:17.143Z,66.04
2023-05-02T21:23:20.122Z,66.68
2023-05-02T21:28:23.099Z,66.76
2023-05-02T21:33:26.017Z,67.05
2023-05-02T21:38:29.205Z,67.63
2023-05-02T21:43:38.140Z,67.70
2023-05-02T21:48:41.167Z,68.32
2023-05-02T21:53:44.101Z,68.75
2023-05-02T21:58:49.675Z,68.75
2023-05-02T22:03:52.593Z,69.19
2023-05-02T22:08:55.753Z,69.47
2023-05-02T22:13:58.694Z,69.86
2023-05-02T22:19:01.685Z,70.10
2023-05-02T22:24:05.096Z,70.58
2023-05-02T22:29:08.039Z,70.99
2023-05-02T22:34:11.099Z,71.06
2023-05-02T22:39:15.740Z,71.17
2023-05-02T22:44:18.832Z,71.26
2023-05-02T22:49:21.816Z,71.35
2023-05-02T22:54:24.966Z,71.27
2023-05-02T22:59:29.735Z,71.54
2023-05-02T23:04:33.549Z,71.87
2023-05-02T23:09:36.504Z,72.20
2023-05-02T23:14:39.474Z,72.27
2023-05-02T23:19:45.328Z,72.38
2023-05-02T23:24:48.488Z,72.38
2023-05-02T23:29:51.804Z,72.38
2023-05-02T23:34:56.124Z,72.40
2023-05-02T23:40:01.028Z,72.45
2023-05-02T23:45:05.274Z,72.60
2023-05-02T23:50:08.733Z,72.62
2023-05-02T23:55:11.562Z,72.73
